sensor_id;sensor_type;location;lat;lon;timestamp;P1;durP1;ratioP1;P2;durP2;ratioP2
71172;SDS011;58875;51.996;4.504;2023-10-31T00:01:07;2.85;;;2.80;;
71172;SDS011;58875;51.996;4.504;2023-10-31T00:03:32;2.67;;;2.59;;
71172;SDS011;58875;51.996;4.504;2023-10-31T00:05:58;2.49;;;2.38;;
71172;SDS011;58875;51.996;4.504;2023-10-31T00:08:23;2.49;;;2.33;;
71172;SDS011;58875;51.996;4.504;2023-10-31T00:10:49;2.36;;;2.22;;
71172;SDS011;58875;51.996;4.504;2023-10-31T00:13:15;2.94;;;2.77;;
71172;SDS011;58875;51.996;4.504;2023-10-31T00:15:41;2.66;;;2.51;;
71172;SDS011;58875;51.996;4.504;2023-10-31T00:18:07;2.83;;;2.68;;
71172;SDS011;58875;51.996;4.504;2023-10-31T00:20:32;2.54;;;2.41;;
71172;SDS011;58875;51.996;4.504;2023-10-31T00:22:58;2.56;;;2.48;;
71172;SDS011;58875;51.996;4.504;2023-10-31T00:25:23;2.56;;;2.49;;
71172;SDS011;58875;51.996;4.504;2023-10-31T00:27:49;2.72;;;2.60;;
71172;SDS011;58875;51.996;4.504;2023-10-31T00:30:14;3.04;;;2.91;;
71172;SDS011;58875;51.996;4.504;2023-10-31T00:32:40;3.25;;;3.11;;
71172;SDS011;58875;51.996;4.504;2023-10-31T00:35:05;3.25;;;3.15;;
71172;SDS011;58875;51.996;4.504;2023-10-31T00:37:31;3.55;;;3.47;;
71172;SDS011;58875;51.996;4.504;2023-10-31T00:39:57;3.50;;;3.44;;
71172;SDS011;58875;51.996;4.504;2023-10-31T00:42:22;3.66;;;3.61;;
71172;SDS011;58875;51.996;4.504;2023-10-31T00:44:48;3.68;;;3.67;;
71172;SDS011;58875;51.996;4.504;2023-10-31T00:47:13;3.87;;;3.85;;
71172;SDS011;58875;51.996;4.504;2023-10-31T00:49:40;4.53;;;4.47;;
71172;SDS011;58875;51.996;4.504;2023-10-31T00:52:06;4.76;;;4.72;;
71172;SDS011;58875;51.996;4.504;2023-10-31T00:54:31;4.76;;;4.69;;
71172;SDS011;58875;51.996;4.504;2023-10-31T00:56:57;5.24;;;5.17;;
71172;SDS011;58875;51.996;4.504;2023-10-31T00:59:22;4.94;;;4.91;;
71172;SDS011;58875;51.996;4.504;2023-10-31T01:01:49;4.62;;;4.62;;
71172;SDS011;58875;51.996;4.504;2023-10-31T01:04:14;4.53;;;4.52;;
71172;SDS011;58875;51.996;4.504;2023-10-31T01:06:41;4.75;;;4.72;;
71172;SDS011;58875;51.996;4.504;2023-10-31T01:09:07;4.71;;;4.65;;
71172;SDS011;58875;51.996;4.504;2023-10-31T01:11:33;4.83;;;4.78;;
71172;SDS011;58875;51.996;4.504;2023-10-31T01:13:58;4.99;;;4.94;;
71172;SDS011;58875;51.996;4.504;2023-10-31T01:16:24;4.86;;;4.85;;
71172;SDS011;58875;51.996;4.504;2023-10-31T01:18:49;4.90;;;4.90;;
71172;SDS011;58875;51.996;4.504;2023-10-31T01:21:15;5.36;;;5.36;;
71172;SDS011;58875;51.996;4.504;2023-10-31T01:23:40;5.38;;;5.38;;
71172;SDS011;58875;51.996;4.504;2023-10-31T01:26:06;5.50;;;5.50;;
71172;SDS011;58875;51.996;4.504;2023-10-31T01:28:31;5.68;;;5.68;;
71172;SDS011;58875;51.996;4.504;2023-10-31T01:30:57;5.34;;;5.34;;
71172;SDS011;58875;51.996;4.504;2023-10-31T01:33:22;5.81;;;5.81;;
71172;SDS011;58875;51.996;4.504;2023-10-31T01:35:48;6.01;;;6.01;;
71172;SDS011;58875;51.996;4.504;2023-10-31T01:38:13;6.45;;;6.45;;
71172;SDS011;58875;51.996;4.504;2023-10-31T01:40:39;5.90;;;5.90;;
71172;SDS011;58875;51.996;4.504;2023-10-31T01:43:04;5.87;;;5.87;;
71172;SDS011;58875;51.996;4.504;2023-10-31T01:45:30;5.79;;;5.79;;
71172;SDS011;58875;51.996;4.504;2023-10-31T01:47:55;5.28;;;5.28;;
71172;SDS011;58875;51.996;4.504;2023-10-31T01:50:21;5.16;;;5.16;;
71172;SDS011;58875;51.996;4.504;2023-10-31T01:52:51;4.88;;;4.88;;
71172;SDS011;58875;51.996;4.504;2023-10-31T01:55:19;4.27;;;4.27;;
71172;SDS011;58875;51.996;4.504;2023-10-31T01:57:47;3.93;;;3.93;;
71172;SDS011;58875;51.996;4.504;2023-10-31T02:00:14;3.62;;;3.62;;
71172;SDS011;58875;51.996;4.504;2023-10-31T02:02:40;3.45;;;3.45;;
71172;SDS011;58875;51.996;4.504;2023-10-31T02:05:09;2.96;;;2.95;;
71172;SDS011;58875;51.996;4.504;2023-10-31T02:07:35;3.08;;;3.07;;
71172;SDS011;58875;51.996;4.504;2023-10-31T02:10:00;3.34;;;3.34;;
71172;SDS011;58875;51.996;4.504;2023-10-31T02:12:33;3.91;;;3.91;;
71172;SDS011;58875;51.996;4.504;2023-10-31T02:15:00;5.26;;;5.26;;
71172;SDS011;58875;51.996;4.504;2023-10-31T02:17:26;6.15;;;6.15;;
71172;SDS011;58875;51.996;4.504;2023-10-31T02:19:52;6.99;;;6.99;;
71172;SDS011;58875;51.996;4.504;2023-10-31T02:22:18;7.21;;;7.21;;
71172;SDS011;58875;51.996;4.504;2023-10-31T02:24:43;6.76;;;6.76;;
71172;SDS011;58875;51.996;4.504;2023-10-31T02:27:09;7.00;;;6.92;;
71172;SDS011;58875;51.996;4.504;2023-10-31T02:29:34;6.35;;;6.23;;
71172;SDS011;58875;51.996;4.504;2023-10-31T02:32:00;5.78;;;5.74;;
71172;SDS011;58875;51.996;4.504;2023-10-31T02:34:25;5.38;;;5.38;;
71172;SDS011;58875;51.996;4.504;2023-10-31T02:36:51;5.37;;;5.35;;
71172;SDS011;58875;51.996;4.504;2023-10-31T02:39:17;5.06;;;5.01;;
71172;SDS011;58875;51.996;4.504;2023-10-31T02:41:43;4.76;;;4.75;;
71172;SDS011;58875;51.996;4.504;2023-10-31T02:44:08;4.06;;;4.06;;
71172;SDS011;58875;51.996;4.504;2023-10-31T02:46:38;3.23;;;3.23;;
71172;SDS011;58875;51.996;4.504;2023-10-31T02:49:03;2.36;;;2.36;;
71172;SDS011;58875;51.996;4.504;2023-10-31T02:51:29;1.63;;;1.63;;
71172;SDS011;58875;51.996;4.504;2023-10-31T02:53:55;1.41;;;1.41;;
71172;SDS011;58875;51.996;4.504;2023-10-31T02:56:20;1.22;;;1.21;;
71172;SDS011;58875;51.996;4.504;2023-10-31T02:58:46;1.30;;;1.26;;
71172;SDS011;58875;51.996;4.504;2023-10-31T03:01:11;1.49;;;1.42;;
71172;SDS011;58875;51.996;4.504;2023-10-31T03:03:37;1.66;;;1.57;;
71172;SDS011;58875;51.996;4.504;2023-10-31T03:06:04;2.23;;;2.18;;
71172;SDS011;58875;51.996;4.504;2023-10-31T03:08:30;2.54;;;2.51;;
71172;SDS011;58875;51.996;4.504;2023-10-31T03:10:56;2.49;;;2.49;;
71172;SDS011;58875;51.996;4.504;2023-10-31T03:13:21;1.79;;;1.79;;
71172;SDS011;58875;51.996;4.504;2023-10-31T03:15:48;1.60;;;1.60;;
71172;SDS011;58875;51.996;4.504;2023-10-31T03:18:14;1.15;;;1.15;;
71172;SDS011;58875;51.996;4.504;2023-10-31T03:20:45;1.04;;;1.04;;
71172;SDS011;58875;51.996;4.504;2023-10-31T03:23:13;1.20;;;1.20;;
71172;SDS011;58875;51.996;4.504;2023-10-31T03:25:39;1.42;;;1.41;;
71172;SDS011;58875;51.996;4.504;2023-10-31T03:28:07;1.23;;;1.23;;
71172;SDS011;58875;51.996;4.504;2023-10-31T03:30:44;1.21;;;1.21;;
71172;SDS011;58875;51.996;4.504;2023-10-31T03:33:11;1.07;;;1.07;;
71172;SDS011;58875;51.996;4.504;2023-10-31T03:35:36;1.06;;;1.06;;
71172;SDS011;58875;51.996;4.504;2023-10-31T03:38:03;1.26;;;1.26;;
71172;SDS011;58875;51.996;4.504;2023-10-31T03:40:29;1.49;;;1.49;;
71172;SDS011;58875;51.996;4.504;2023-10-31T03:42:54;1.66;;;1.66;;
71172;SDS011;58875;51.996;4.504;2023-10-31T03:45:19;1.93;;;1.93;;
71172;SDS011;58875;51.996;4.504;2023-10-31T03:47:45;1.96;;;1.96;;
71172;SDS011;58875;51.996;4.504;2023-10-31T03:50:10;2.10;;;2.10;;
71172;SDS011;58875;51.996;4.504;2023-10-31T03:52:36;2.41;;;2.41;;
71172;SDS011;58875;51.996;4.504;2023-10-31T03:55:02;1.71;;;1.71;;
71172;SDS011;58875;51.996;4.504;2023-10-31T03:57:27;1.40;;;1.40;;
71172;SDS011;58875;51.996;4.504;2023-10-31T03:59:53;1.14;;;1.14;;
71172;SDS011;58875;51.996;4.504;2023-10-31T04:02:18;1.18;;;1.18;;
71172;SDS011;58875;51.996;4.504;2023-10-31T04:04:44;1.11;;;1.06;;
71172;SDS011;58875;51.996;4.504;2023-10-31T04:07:09;0.95;;;0.90;;
71172;SDS011;58875;51.996;4.504;2023-10-31T04:09:35;1.00;;;0.92;;
71172;SDS011;58875;51.996;4.504;2023-10-31T04:12:00;0.92;;;0.84;;
71172;SDS011;58875;51.996;4.504;2023-10-31T04:14:26;0.92;;;0.82;;
71172;SDS011;58875;51.996;4.504;2023-10-31T04:16:51;0.77;;;0.69;;
71172;SDS011;58875;51.996;4.504;2023-10-31T04:19:17;0.80;;;0.71;;
71172;SDS011;58875;51.996;4.504;2023-10-31T04:21:42;0.89;;;0.78;;
71172;SDS011;58875;51.996;4.504;2023-10-31T04:24:08;0.80;;;0.69;;
71172;SDS011;58875;51.996;4.504;2023-10-31T04:26:33;0.76;;;0.65;;
71172;SDS011;58875;51.996;4.504;2023-10-31T04:28:59;0.88;;;0.74;;
71172;SDS011;58875;51.996;4.504;2023-10-31T04:31:24;0.90;;;0.75;;
71172;SDS011;58875;51.996;4.504;2023-10-31T04:33:50;0.91;;;0.75;;
71172;SDS011;58875;51.996;4.504;2023-10-31T04:36:15;0.81;;;0.66;;
71172;SDS011;58875;51.996;4.504;2023-10-31T04:38:44;1.07;;;0.86;;
71172;SDS011;58875;51.996;4.504;2023-10-31T04:41:09;1.13;;;0.89;;
71172;SDS011;58875;51.996;4.504;2023-10-31T04:43:35;1.02;;;0.80;;
71172;SDS011;58875;51.996;4.504;2023-10-31T04:46:00;1.05;;;0.82;;
71172;SDS011;58875;51.996;4.504;2023-10-31T04:48:29;1.26;;;0.97;;
71172;SDS011;58875;51.996;4.504;2023-10-31T04:50:54;1.36;;;1.04;;
71172;SDS011;58875;51.996;4.504;2023-10-31T04:53:21;1.31;;;1.01;;
71172;SDS011;58875;51.996;4.504;2023-10-31T04:55:47;1.40;;;1.12;;
71172;SDS011;58875;51.996;4.504;2023-10-31T04:58:13;1.50;;;1.23;;
71172;SDS011;58875;51.996;4.504;2023-10-31T05:00:38;1.40;;;1.19;;
71172;SDS011;58875;51.996;4.504;2023-10-31T05:03:07;1.76;;;1.53;;
71172;SDS011;58875;51.996;4.504;2023-10-31T05:05:32;2.05;;;1.79;;
71172;SDS011;58875;51.996;4.504;2023-10-31T05:07:58;2.50;;;2.19;;
71172;SDS011;58875;51.996;4.504;2023-10-31T05:10:24;2.99;;;2.68;;
71172;SDS011;58875;51.996;4.504;2023-10-31T05:12:50;3.24;;;3.00;;
71172;SDS011;58875;51.996;4.504;2023-10-31T05:15:16;3.80;;;3.58;;
71172;SDS011;58875;51.996;4.504;2023-10-31T05:17:42;4.19;;;3.91;;
71172;SDS011;58875;51.996;4.504;2023-10-31T05:20:08;3.93;;;3.69;;
71172;SDS011;58875;51.996;4.504;2023-10-31T05:22:34;3.83;;;3.63;;
71172;SDS011;58875;51.996;4.504;2023-10-31T05:25:00;3.96;;;3.76;;
71172;SDS011;58875;51.996;4.504;2023-10-31T05:27:26;4.21;;;4.06;;
71172;SDS011;58875;51.996;4.504;2023-10-31T05:29:51;4.12;;;3.94;;
71172;SDS011;58875;51.996;4.504;2023-10-31T05:32:17;4.13;;;4.00;;
71172;SDS011;58875;51.996;4.504;2023-10-31T05:34:42;4.01;;;3.87;;
71172;SDS011;58875;51.996;4.504;2023-10-31T05:37:08;3.66;;;3.59;;
71172;SDS011;58875;51.996;4.504;2023-10-31T05:39:33;3.89;;;3.75;;
71172;SDS011;58875;51.996;4.504;2023-10-31T05:42:01;3.73;;;3.55;;
71172;SDS011;58875;51.996;4.504;2023-10-31T05:44:27;3.18;;;3.05;;
71172;SDS011;58875;51.996;4.504;2023-10-31T05:46:53;2.94;;;2.81;;
71172;SDS011;58875;51.996;4.504;2023-10-31T05:49:19;2.80;;;2.68;;
71172;SDS011;58875;51.996;4.504;2023-10-31T05:51:45;2.15;;;2.04;;
71172;SDS011;58875;51.996;4.504;2023-10-31T05:54:14;1.77;;;1.69;;
71172;SDS011;58875;51.996;4.504;2023-10-31T05:56:40;1.53;;;1.44;;
71172;SDS011;58875;51.996;4.504;2023-10-31T05:59:06;1.40;;;1.31;;
71172;SDS011;58875;51.996;4.504;2023-10-31T06:01:31;1.47;;;1.37;;
71172;SDS011;58875;51.996;4.504;2023-10-31T06:03:57;1.38;;;1.27;;
71172;SDS011;58875;51.996;4.504;2023-10-31T06:06:23;1.49;;;1.38;;
71172;SDS011;58875;51.996;4.504;2023-10-31T06:08:48;1.46;;;1.36;;
71172;SDS011;58875;51.996;4.504;2023-10-31T06:11:14;1.51;;;1.41;;
71172;SDS011;58875;51.996;4.504;2023-10-31T06:13:40;1.81;;;1.71;;
71172;SDS011;58875;51.996;4.504;2023-10-31T06:16:06;1.71;;;1.62;;
71172;SDS011;58875;51.996;4.504;2023-10-31T06:18:32;1.92;;;1.81;;
71172;SDS011;58875;51.996;4.504;2023-10-31T06:20:58;1.79;;;1.70;;
71172;SDS011;58875;51.996;4.504;2023-10-31T06:23:24;1.72;;;1.66;;
71172;SDS011;58875;51.996;4.504;2023-10-31T06:25:49;1.94;;;1.93;;
71172;SDS011;58875;51.996;4.504;2023-10-31T06:28:15;1.80;;;1.80;;
71172;SDS011;58875;51.996;4.504;2023-10-31T06:30:41;1.96;;;1.96;;
71172;SDS011;58875;51.996;4.504;2023-10-31T06:33:06;2.09;;;2.09;;
71172;SDS011;58875;51.996;4.504;2023-10-31T06:35:35;1.97;;;1.97;;
71172;SDS011;58875;51.996;4.504;2023-10-31T06:38:01;2.12;;;2.12;;
71172;SDS011;58875;51.996;4.504;2023-10-31T06:40:27;2.18;;;2.18;;
71172;SDS011;58875;51.996;4.504;2023-10-31T06:42:53;2.22;;;2.22;;
71172;SDS011;58875;51.996;4.504;2023-10-31T06:45:18;2.02;;;2.02;;
71172;SDS011;58875;51.996;4.504;2023-10-31T06:47:44;2.40;;;2.40;;
71172;SDS011;58875;51.996;4.504;2023-10-31T06:50:09;2.11;;;2.11;;
71172;SDS011;58875;51.996;4.504;2023-10-31T06:52:35;2.27;;;2.27;;
71172;SDS011;58875;51.996;4.504;2023-10-31T06:55:01;2.37;;;2.37;;
71172;SDS011;58875;51.996;4.504;2023-10-31T06:57:26;2.41;;;2.40;;
71172;SDS011;58875;51.996;4.504;2023-10-31T06:59:52;2.43;;;2.43;;
71172;SDS011;58875;51.996;4.504;2023-10-31T07:02:17;2.56;;;2.56;;
71172;SDS011;58875;51.996;4.504;2023-10-31T07:04:43;2.67;;;2.67;;
71172;SDS011;58875;51.996;4.504;2023-10-31T07:07:10;2.62;;;2.62;;
71172;SDS011;58875;51.996;4.504;2023-10-31T07:09:36;2.87;;;2.87;;
71172;SDS011;58875;51.996;4.504;2023-10-31T07:12:01;2.81;;;2.81;;
71172;SDS011;58875;51.996;4.504;2023-10-31T07:14:27;2.99;;;2.99;;
71172;SDS011;58875;51.996;4.504;2023-10-31T07:16:52;3.06;;;3.05;;
71172;SDS011;58875;51.996;4.504;2023-10-31T07:19:18;3.02;;;3.02;;
71172;SDS011;58875;51.996;4.504;2023-10-31T07:21:43;3.28;;;3.26;;
71172;SDS011;58875;51.996;4.504;2023-10-31T07:24:09;3.24;;;3.20;;
71172;SDS011;58875;51.996;4.504;2023-10-31T07:26:35;3.49;;;3.42;;
71172;SDS011;58875;51.996;4.504;2023-10-31T07:29:00;3.67;;;3.59;;
71172;SDS011;58875;51.996;4.504;2023-10-31T07:31:26;3.52;;;3.47;;
71172;SDS011;58875;51.996;4.504;2023-10-31T07:33:51;3.31;;;3.30;;
71172;SDS011;58875;51.996;4.504;2023-10-31T07:36:17;3.51;;;3.46;;
71172;SDS011;58875;51.996;4.504;2023-10-31T07:38:45;3.48;;;3.47;;
71172;SDS011;58875;51.996;4.504;2023-10-31T07:41:10;3.41;;;3.41;;
71172;SDS011;58875;51.996;4.504;2023-10-31T07:43:36;3.36;;;3.36;;
71172;SDS011;58875;51.996;4.504;2023-10-31T07:46:01;3.47;;;3.47;;
71172;SDS011;58875;51.996;4.504;2023-10-31T07:48:27;3.77;;;3.77;;
71172;SDS011;58875;51.996;4.504;2023-10-31T07:50:55;4.09;;;4.09;;
71172;SDS011;58875;51.996;4.504;2023-10-31T07:53:20;4.25;;;4.25;;
71172;SDS011;58875;51.996;4.504;2023-10-31T07:55:46;4.35;;;4.35;;
71172;SDS011;58875;51.996;4.504;2023-10-31T07:58:11;4.61;;;4.61;;
71172;SDS011;58875;51.996;4.504;2023-10-31T08:00:38;4.90;;;4.90;;
71172;SDS011;58875;51.996;4.504;2023-10-31T08:03:04;4.90;;;4.90;;
71172;SDS011;58875;51.996;4.504;2023-10-31T08:05:30;4.92;;;4.92;;
71172;SDS011;58875;51.996;4.504;2023-10-31T08:07:55;5.30;;;5.30;;
71172;SDS011;58875;51.996;4.504;2023-10-31T08:10:21;5.16;;;5.16;;
71172;SDS011;58875;51.996;4.504;2023-10-31T08:12:46;5.57;;;5.57;;
71172;SDS011;58875;51.996;4.504;2023-10-31T08:15:12;5.65;;;5.65;;
71172;SDS011;58875;51.996;4.504;2023-10-31T08:17:39;6.26;;;6.26;;
71172;SDS011;58875;51.996;4.504;2023-10-31T08:20:04;6.49;;;6.49;;
71172;SDS011;58875;51.996;4.504;2023-10-31T08:22:30;7.04;;;7.04;;
71172;SDS011;58875;51.996;4.504;2023-10-31T08:24:56;7.10;;;7.10;;
71172;SDS011;58875;51.996;4.504;2023-10-31T08:27:21;7.90;;;7.90;;
71172;SDS011;58875;51.996;4.504;2023-10-31T08:29:47;8.93;;;8.93;;
71172;SDS011;58875;51.996;4.504;2023-10-31T08:32:13;9.15;;;9.15;;
71172;SDS011;58875;51.996;4.504;2023-10-31T08:34:38;9.97;;;9.97;;
71172;SDS011;58875;51.996;4.504;2023-10-31T08:37:04;10.40;;;10.39;;
71172;SDS011;58875;51.996;4.504;2023-10-31T08:39:29;10.34;;;10.33;;
71172;SDS011;58875;51.996;4.504;2023-10-31T08:41:56;10.63;;;10.61;;
71172;SDS011;58875;51.996;4.504;2023-10-31T08:44:23;10.20;;;10.20;;
71172;SDS011;58875;51.996;4.504;2023-10-31T08:46:49;10.11;;;10.11;;
71172;SDS011;58875;51.996;4.504;2023-10-31T08:49:14;10.29;;;10.29;;
71172;SDS011;58875;51.996;4.504;2023-10-31T08:51:41;10.10;;;10.04;;
71172;SDS011;58875;51.996;4.504;2023-10-31T08:54:07;9.90;;;9.82;;
71172;SDS011;58875;51.996;4.504;2023-10-31T08:56:34;8.27;;;8.23;;
71172;SDS011;58875;51.996;4.504;2023-10-31T08:58:59;7.35;;;7.29;;
71172;SDS011;58875;51.996;4.504;2023-10-31T09:01:26;7.30;;;7.17;;
71172;SDS011;58875;51.996;4.504;2023-10-31T09:03:52;6.81;;;6.74;;
71172;SDS011;58875;51.996;4.504;2023-10-31T09:06:17;6.32;;;6.24;;
71172;SDS011;58875;51.996;4.504;2023-10-31T09:08:43;6.15;;;6.09;;
71172;SDS011;58875;51.996;4.504;2023-10-31T09:11:09;5.50;;;5.42;;
71172;SDS011;58875;51.996;4.504;2023-10-31T09:13:34;4.91;;;4.88;;
71172;SDS011;58875;51.996;4.504;2023-10-31T09:16:00;4.86;;;4.82;;
71172;SDS011;58875;51.996;4.504;2023-10-31T09:18:26;4.59;;;4.55;;
71172;SDS011;58875;51.996;4.504;2023-10-31T09:20:52;4.12;;;4.09;;
71172;SDS011;58875;51.996;4.504;2023-10-31T09:23:18;3.73;;;3.70;;
71172;SDS011;58875;51.996;4.504;2023-10-31T09:25:44;3.31;;;3.28;;
71172;SDS011;58875;51.996;4.504;2023-10-31T09:28:10;3.48;;;3.42;;
71172;SDS011;58875;51.996;4.504;2023-10-31T09:30:36;3.28;;;3.16;;
71172;SDS011;58875;51.996;4.504;2023-10-31T09:33:01;3.16;;;3.05;;
71172;SDS011;58875;51.996;4.504;2023-10-31T09:35:27;3.34;;;3.19;;
71172;SDS011;58875;51.996;4.504;2023-10-31T09:37:53;3.33;;;3.23;;
71172;SDS011;58875;51.996;4.504;2023-10-31T09:40:19;3.65;;;3.54;;
71172;SDS011;58875;51.996;4.504;2023-10-31T09:42:46;3.51;;;3.40;;
71172;SDS011;58875;51.996;4.504;2023-10-31T09:45:12;3.97;;;3.83;;
71172;SDS011;58875;51.996;4.504;2023-10-31T09:47:38;4.12;;;4.06;;
71172;SDS011;58875;51.996;4.504;2023-10-31T09:50:05;3.83;;;3.82;;
71172;SDS011;58875;51.996;4.504;2023-10-31T09:52:33;4.00;;;3.87;;
71172;SDS011;58875;51.996;4.504;2023-10-31T09:55:00;3.99;;;3.87;;
71172;SDS011;58875;51.996;4.504;2023-10-31T09:57:28;4.46;;;4.30;;
71172;SDS011;58875;51.996;4.504;2023-10-31T09:59:54;5.22;;;5.02;;
71172;SDS011;58875;51.996;4.504;2023-10-31T10:02:20;6.11;;;5.89;;
71172;SDS011;58875;51.996;4.504;2023-10-31T10:04:45;6.14;;;5.93;;
71172;SDS011;58875;51.996;4.504;2023-10-31T10:07:13;6.51;;;6.37;;
71172;SDS011;58875;51.996;4.504;2023-10-31T10:09:42;6.46;;;6.43;;
71172;SDS011;58875;51.996;4.504;2023-10-31T10:12:10;6.91;;;6.90;;
71172;SDS011;58875;51.996;4.504;2023-10-31T10:14:38;6.82;;;6.70;;
71172;SDS011;58875;51.996;4.504;2023-10-31T10:17:17;6.50;;;6.38;;
71172;SDS011;58875;51.996;4.504;2023-10-31T10:19:46;5.93;;;5.80;;
71172;SDS011;58875;51.996;4.504;2023-10-31T10:22:13;5.87;;;5.63;;
71172;SDS011;58875;51.996;4.504;2023-10-31T10:24:42;6.02;;;5.82;;
71172;SDS011;58875;51.996;4.504;2023-10-31T10:27:08;5.96;;;5.81;;
71172;SDS011;58875;51.996;4.504;2023-10-31T10:29:34;5.43;;;5.37;;
71172;SDS011;58875;51.996;4.504;2023-10-31T10:32:00;5.84;;;5.61;;
71172;SDS011;58875;51.996;4.504;2023-10-31T10:34:26;5.81;;;5.58;;
71172;SDS011;58875;51.996;4.504;2023-10-31T10:36:51;5.48;;;5.33;;
71172;SDS011;58875;51.996;4.504;2023-10-31T10:39:20;5.11;;;5.08;;
71172;SDS011;58875;51.996;4.504;2023-10-31T10:41:54;5.48;;;5.45;;
71172;SDS011;58875;51.996;4.504;2023-10-31T10:44:24;5.36;;;5.34;;
71172;SDS011;58875;51.996;4.504;2023-10-31T10:47:03;5.05;;;5.05;;
71172;SDS011;58875;51.996;4.504;2023-10-31T10:49:34;5.20;;;5.20;;
71172;SDS011;58875;51.996;4.504;2023-10-31T10:52:16;5.41;;;5.41;;
71172;SDS011;58875;51.996;4.504;2023-10-31T10:54:56;5.43;;;5.43;;
71172;SDS011;58875;51.996;4.504;2023-10-31T11:00:09;4.95;;;4.94;;
71172;SDS011;58875;51.996;4.504;2023-10-31T11:02:39;5.41;;;5.41;;
71172;SDS011;58875;51.996;4.504;2023-10-31T11:05:08;7.24;;;7.24;;
71172;SDS011;58875;51.996;4.504;2023-10-31T11:07:35;14.94;;;14.87;;
71172;SDS011;58875;51.996;4.504;2023-10-31T11:10:03;18.52;;;18.16;;
71172;SDS011;58875;51.996;4.504;2023-10-31T11:12:30;22.35;;;22.07;;
71172;SDS011;58875;51.996;4.504;2023-10-31T11:14:59;23.61;;;23.23;;
71172;SDS011;58875;51.996;4.504;2023-10-31T11:17:28;24.96;;;24.61;;
71172;SDS011;58875;51.996;4.504;2023-10-31T11:19:56;26.80;;;26.11;;
71172;SDS011;58875;51.996;4.504;2023-10-31T11:22:23;27.06;;;26.47;;
71172;SDS011;58875;51.996;4.504;2023-10-31T11:24:49;27.38;;;26.68;;
71172;SDS011;58875;51.996;4.504;2023-10-31T11:27:16;26.89;;;26.45;;
71172;SDS011;58875;51.996;4.504;2023-10-31T11:29:43;26.28;;;25.55;;
71172;SDS011;58875;51.996;4.504;2023-10-31T11:32:09;25.96;;;25.46;;
71172;SDS011;58875;51.996;4.504;2023-10-31T11:34:37;26.63;;;25.95;;
71172;SDS011;58875;51.996;4.504;2023-10-31T11:42:52;22.15;;;21.69;;
71172;SDS011;58875;51.996;4.504;2023-10-31T11:48:17;21.85;;;21.19;;
71172;SDS011;58875;51.996;4.504;2023-10-31T11:50:42;21.29;;;20.53;;
71172;SDS011;58875;51.996;4.504;2023-10-31T11:53:09;20.87;;;20.10;;
71172;SDS011;58875;51.996;4.504;2023-10-31T11:55:40;20.59;;;19.92;;
71172;SDS011;58875;51.996;4.504;2023-10-31T12:00:47;20.54;;;19.67;;
71172;SDS011;58875;51.996;4.504;2023-10-31T12:03:17;20.73;;;19.93;;
71172;SDS011;58875;51.996;4.504;2023-10-31T12:05:55;21.34;;;20.76;;
71172;SDS011;58875;51.996;4.504;2023-10-31T12:08:26;21.01;;;20.30;;
71172;SDS011;58875;51.996;4.504;2023-10-31T12:10:52;21.32;;;20.71;;
71172;SDS011;58875;51.996;4.504;2023-10-31T12:13:18;20.89;;;20.28;;
71172;SDS011;58875;51.996;4.504;2023-10-31T12:15:51;21.68;;;20.96;;
71172;SDS011;58875;51.996;4.504;2023-10-31T12:18:18;21.43;;;20.72;;
71172;SDS011;58875;51.996;4.504;2023-10-31T12:20:47;20.79;;;20.26;;
71172;SDS011;58875;51.996;4.504;2023-10-31T12:23:14;21.97;;;21.27;;
71172;SDS011;58875;51.996;4.504;2023-10-31T12:25:50;21.93;;;21.08;;
71172;SDS011;58875;51.996;4.504;2023-10-31T12:28:20;21.46;;;21.05;;
71172;SDS011;58875;51.996;4.504;2023-10-31T12:30:47;21.04;;;20.46;;
71172;SDS011;58875;51.996;4.504;2023-10-31T12:33:15;20.93;;;20.35;;
71172;SDS011;58875;51.996;4.504;2023-10-31T12:35:42;20.73;;;20.07;;
71172;SDS011;58875;51.996;4.504;2023-10-31T12:38:12;19.77;;;19.05;;
71172;SDS011;58875;51.996;4.504;2023-10-31T12:40:44;19.37;;;18.84;;
71172;SDS011;58875;51.996;4.504;2023-10-31T12:43:10;19.94;;;19.19;;
71172;SDS011;58875;51.996;4.504;2023-10-31T12:45:36;19.74;;;19.11;;
71172;SDS011;58875;51.996;4.504;2023-10-31T12:48:08;19.80;;;19.05;;
71172;SDS011;58875;51.996;4.504;2023-10-31T12:50:37;18.88;;;18.42;;
71172;SDS011;58875;51.996;4.504;2023-10-31T12:53:07;18.26;;;17.78;;
71172;SDS011;58875;51.996;4.504;2023-10-31T12:55:40;18.74;;;18.12;;
71172;SDS011;58875;51.996;4.504;2023-10-31T12:58:07;18.54;;;17.93;;
71172;SDS011;58875;51.996;4.504;2023-10-31T13:00:39;20.11;;;19.35;;
71172;SDS011;58875;51.996;4.504;2023-10-31T13:03:07;20.43;;;19.85;;
71172;SDS011;58875;51.996;4.504;2023-10-31T13:05:34;20.92;;;20.32;;
71172;SDS011;58875;51.996;4.504;2023-10-31T13:08:01;21.84;;;21.16;;
71172;SDS011;58875;51.996;4.504;2023-10-31T13:10:30;23.07;;;22.20;;
71172;SDS011;58875;51.996;4.504;2023-10-31T13:12:58;23.03;;;22.28;;
71172;SDS011;58875;51.996;4.504;2023-10-31T13:15:24;22.72;;;22.07;;
71172;SDS011;58875;51.996;4.504;2023-10-31T13:17:50;23.29;;;22.46;;
71172;SDS011;58875;51.996;4.504;2023-10-31T13:20:17;22.96;;;22.12;;
71172;SDS011;58875;51.996;4.504;2023-10-31T13:22:44;23.57;;;22.72;;
71172;SDS011;58875;51.996;4.504;2023-10-31T13:25:11;22.95;;;22.14;;
71172;SDS011;58875;51.996;4.504;2023-10-31T13:27:39;23.29;;;22.49;;
71172;SDS011;58875;51.996;4.504;2023-10-31T13:30:09;23.39;;;22.57;;
71172;SDS011;58875;51.996;4.504;2023-10-31T13:32:36;23.99;;;23.30;;
71172;SDS011;58875;51.996;4.504;2023-10-31T13:35:02;23.76;;;23.39;;
71172;SDS011;58875;51.996;4.504;2023-10-31T13:37:29;28.59;;;27.63;;
71172;SDS011;58875;51.996;4.504;2023-10-31T13:39:55;31.89;;;30.74;;
71172;SDS011;58875;51.996;4.504;2023-10-31T13:42:21;35.03;;;33.65;;
71172;SDS011;58875;51.996;4.504;2023-10-31T13:44:46;35.83;;;33.99;;
71172;SDS011;58875;51.996;4.504;2023-10-31T13:47:13;37.30;;;35.44;;
71172;SDS011;58875;51.996;4.504;2023-10-31T13:49:38;37.31;;;35.44;;
71172;SDS011;58875;51.996;4.504;2023-10-31T13:52:04;36.40;;;34.87;;
71172;SDS011;58875;51.996;4.504;2023-10-31T13:54:33;35.84;;;34.40;;
71172;SDS011;58875;51.996;4.504;2023-10-31T13:57:00;32.16;;;31.30;;
71172;SDS011;58875;51.996;4.504;2023-10-31T13:59:25;32.24;;;30.92;;
71172;SDS011;58875;51.996;4.504;2023-10-31T14:01:52;31.29;;;30.01;;
71172;SDS011;58875;51.996;4.504;2023-10-31T14:04:18;29.45;;;28.35;;
71172;SDS011;58875;51.996;4.504;2023-10-31T14:06:44;29.14;;;27.75;;
71172;SDS011;58875;51.996;4.504;2023-10-31T14:09:10;27.66;;;26.64;;
71172;SDS011;58875;51.996;4.504;2023-10-31T14:11:37;27.43;;;26.16;;
71172;SDS011;58875;51.996;4.504;2023-10-31T14:14:03;26.65;;;25.67;;
71172;SDS011;58875;51.996;4.504;2023-10-31T14:16:41;25.52;;;24.50;;
71172;SDS011;58875;51.996;4.504;2023-10-31T14:19:11;24.90;;;23.90;;
71172;SDS011;58875;51.996;4.504;2023-10-31T14:21:38;24.37;;;23.36;;
71172;SDS011;58875;51.996;4.504;2023-10-31T14:24:04;23.60;;;22.80;;
71172;SDS011;58875;51.996;4.504;2023-10-31T14:26:30;23.15;;;22.65;;
71172;SDS011;58875;51.996;4.504;2023-10-31T14:28:58;23.02;;;22.23;;
71172;SDS011;58875;51.996;4.504;2023-10-31T14:31:23;22.46;;;21.58;;
71172;SDS011;58875;51.996;4.504;2023-10-31T14:33:49;21.48;;;20.74;;
71172;SDS011;58875;51.996;4.504;2023-10-31T14:36:14;20.63;;;20.15;;
71172;SDS011;58875;51.996;4.504;2023-10-31T14:38:40;18.19;;;17.81;;
71172;SDS011;58875;51.996;4.504;2023-10-31T14:41:06;17.04;;;16.56;;
71172;SDS011;58875;51.996;4.504;2023-10-31T14:43:33;17.05;;;16.77;;
71172;SDS011;58875;51.996;4.504;2023-10-31T14:45:59;14.29;;;14.10;;
71172;SDS011;58875;51.996;4.504;2023-10-31T14:48:25;13.87;;;13.60;;
71172;SDS011;58875;51.996;4.504;2023-10-31T14:50:51;13.52;;;13.30;;